EYPA

Palanga International Airport

Palanga, Lithuania
METAR EYPA 232220Z 04016KT 9999 DRSN BKN013 M09/M11 Q1024 R01/420256
Observed Flight Rules
Feb-23 @ 22:20 UTC (17 minutes ago) Marginal Visual Flight Rules
Wind Visibility Clouds Conditions
40° at 16 knots 10,000+ meters
  • Broken at 1,300' AGL
  • Low drifting
  • Snow
Temperatures Readings
Current -9°C / 16°F
Dewpoint -11°C / 12°F
Humidity 86%
Altimeter 30.24" Hg
Pressure 1024 hPa
Elevation 10
METAR EYPA 232220Z 04016KT 9999 DRSN BKN013 M09/M11 Q1024 R01/420256
Observed Flight Rules
Feb-23 @ 22:20 UTC
(17 minutes ago)
MVFR
Wind Visibility
40° at 16 knots 10,000+ meters
Clouds
  • Broken at 1,300' AGL
Conditions
  • Low drifting
  • Snow
Temperature Dewpoint
-9°C / 16°F -11°C / 12°F
Humidity Altimeter Pressure
86% 30.24" Hg 1024 hPa